createdAt,value
2018-01-23T00:00:02.424Z,16.97
2018-01-23T00:02:31.047Z,24.23
2018-01-23T00:04:58.680Z,10.90
2018-01-23T00:07:26.269Z,16.20
2018-01-23T00:09:53.856Z,19.03
2018-01-23T00:12:22.254Z,19.03
2018-01-23T00:14:49.866Z,14.90
2018-01-23T00:17:17.464Z,16.53
2018-01-23T00:19:45.834Z,14.60
2018-01-23T00:22:14.203Z,20.57
2018-01-23T00:24:41.798Z,18.63
2018-01-23T00:27:09.425Z,16.07
2018-01-23T00:29:37.051Z,23.17
2018-01-23T00:32:06.273Z,14.60
2018-01-23T00:34:33.900Z,22.57
2018-01-23T00:37:01.505Z,18.10
2018-01-23T00:39:29.107Z,17.70
2018-01-23T00:41:56.718Z,19.67
2018-01-23T00:44:24.318Z,17.70
2018-01-23T00:46:52.691Z,14.37
2018-01-23T00:49:20.323Z,16.40
2018-01-23T00:51:47.914Z,21.40
2018-01-23T00:54:16.289Z,18.23
2018-01-23T00:56:44.696Z,18.57
2018-01-23T00:59:12.288Z,14.67
2018-01-23T01:01:39.904Z,16.70
2018-01-23T01:04:07.521Z,17.77
2018-01-23T01:06:35.136Z,16.03
2018-01-23T01:09:02.759Z,15.33
2018-01-23T01:11:30.515Z,16.93
2018-01-23T01:13:59.063Z,12.50
2018-01-23T01:16:26.712Z,20.97
2018-01-23T01:18:54.322Z,15.10
2018-01-23T01:21:21.933Z,16.87
2018-01-23T01:23:49.537Z,16.67
2018-01-23T01:26:17.163Z,15.60
2018-01-23T01:28:44.740Z,15.80
2018-01-23T01:31:12.332Z,13.17
2018-01-23T01:33:39.967Z,13.50
2018-01-23T01:36:07.566Z,13.67
2018-01-23T01:38:35.148Z,10.87
2018-01-23T01:41:02.768Z,12.57
2018-01-23T01:43:30.375Z,11.97
2018-01-23T01:45:58.722Z,11.43
2018-01-23T01:48:26.352Z,12.23
2018-01-23T01:50:53.941Z,15.73
2018-01-23T01:53:21.533Z,12.07
2018-01-23T01:55:49.926Z,15.70
2018-01-23T01:58:17.509Z,15.90
2018-01-23T02:00:45.097Z,10.73
2018-01-23T02:03:12.723Z,11.40
2018-01-23T02:05:40.312Z,13.67
2018-01-23T02:08:07.918Z,15.53
2018-01-23T02:10:35.542Z,10.47
2018-01-23T02:13:03.920Z,11.73
2018-01-23T02:15:37.393Z,10.80
2018-01-23T02:18:04.990Z,11.50
2018-01-23T02:20:32.598Z,10.70
2018-01-23T02:23:00.224Z,13.20
2018-01-23T02:25:27.808Z,13.33
2018-01-23T02:27:55.390Z,12.43
2018-01-23T02:30:23.019Z,13.10
2018-01-23T02:32:51.391Z,13.60
2018-01-23T02:35:19.740Z,8.60
2018-01-23T02:37:48.361Z,18.27
2018-01-23T02:40:16.724Z,11.40
2018-01-23T02:42:44.320Z,14.53
2018-01-23T02:45:11.939Z,9.30
2018-01-23T02:47:39.513Z,14.17
2018-01-23T02:50:07.102Z,9.73
2018-01-23T02:52:34.731Z,13.70
2018-01-23T02:55:02.329Z,9.20
2018-01-23T02:57:29.913Z,15.53
2018-01-23T02:59:57.540Z,7.67
2018-01-23T03:02:25.920Z,12.10
2018-01-23T03:04:53.501Z,15.30
2018-01-23T03:07:21.120Z,9.10
2018-01-23T03:09:48.704Z,10.83
2018-01-23T03:12:16.310Z,11.13
2018-01-23T03:14:43.944Z,16.20
2018-01-23T03:17:11.524Z,13.30
2018-01-23T03:19:39.102Z,17.30
2018-01-23T03:22:06.728Z,8.93
2018-01-23T03:24:34.345Z,12.63
2018-01-23T03:27:02.705Z,13.03
2018-01-23T03:29:30.322Z,8.83
2018-01-23T03:31:57.901Z,14.33
2018-01-23T03:34:25.495Z,12.47
2018-01-23T03:36:53.113Z,11.50
2018-01-23T03:39:20.713Z,13.73
2018-01-23T03:41:48.311Z,9.23
2018-01-23T03:44:15.957Z,18.33
2018-01-23T03:46:44.323Z,10.37
2018-01-23T03:49:11.923Z,11.93
2018-01-23T03:51:39.533Z,13.00
2018-01-23T03:54:07.139Z,14.73
2018-01-23T03:56:34.754Z,8.10
2018-01-23T04:02:12.832Z,8.10
2018-01-23T04:04:40.458Z,9.63
2018-01-23T04:07:08.049Z,12.17
2018-01-23T04:09:35.646Z,9.17
2018-01-23T04:12:03.284Z,11.83
2018-01-23T04:14:30.882Z,8.00
2018-01-23T04:16:58.487Z,14.93
2018-01-23T04:19:26.127Z,6.07
2018-01-23T04:21:53.735Z,10.47
2018-01-23T04:24:26.796Z,14.27
2018-01-23T04:26:58.750Z,13.10
2018-01-23T04:29:26.365Z,12.40
2018-01-23T04:31:53.945Z,10.23
2018-01-23T04:34:21.548Z,7.63
2018-01-23T04:36:49.939Z,7.23
2018-01-23T04:39:17.528Z,7.97
2018-01-23T04:41:45.130Z,11.67
2018-01-23T04:44:12.751Z,8.43
2018-01-23T04:46:40.335Z,6.20
2018-01-23T04:49:07.946Z,4.57
2018-01-23T04:51:35.579Z,6.60
2018-01-23T04:54:03.168Z,6.20
2018-01-23T04:56:30.771Z,7.00
2018-01-23T04:58:58.393Z,14.83
2018-01-23T05:01:25.998Z,8.30
2018-01-23T05:03:53.614Z,11.87
2018-01-23T05:06:21.228Z,10.03
2018-01-23T05:08:48.842Z,9.37
2018-01-23T05:11:16.428Z,12.80
2018-01-23T05:13:44.044Z,8.47
2018-01-23T05:16:12.406Z,10.63
2018-01-23T05:18:40.011Z,10.43
2018-01-23T05:21:07.637Z,12.17
2018-01-23T05:23:36.005Z,8.23
2018-01-23T05:26:03.612Z,10.13
2018-01-23T05:28:31.227Z,11.90
2018-01-23T05:30:59.605Z,7.97
2018-01-23T05:33:27.236Z,5.80
2018-01-23T05:35:54.851Z,8.83
2018-01-23T05:38:23.224Z,8.07
2018-01-23T05:41:00.179Z,8.10
2018-01-23T05:43:27.793Z,6.10
2018-01-23T05:45:55.405Z,9.07
2018-01-23T05:48:29.023Z,11.33
2018-01-23T05:50:56.626Z,8.27
2018-01-23T05:53:24.227Z,6.40
2018-01-23T05:55:51.850Z,7.50
2018-01-23T05:58:19.434Z,7.53
2018-01-23T06:00:47.023Z,13.73
2018-01-23T06:03:14.660Z,6.03
2018-01-23T06:05:42.239Z,7.60
2018-01-23T06:08:09.828Z,9.37
2018-01-23T06:10:38.197Z,8.40
2018-01-23T06:13:06.795Z,9.10
2018-01-23T06:15:35.150Z,8.80
2018-01-23T06:18:02.771Z,12.40
2018-01-23T06:20:30.371Z,7.27
2018-01-23T06:22:57.985Z,6.33
2018-01-23T06:25:25.589Z,7.90
2018-01-23T06:27:53.171Z,6.53
2018-01-23T06:30:21.534Z,12.53
2018-01-23T06:32:49.157Z,11.00
2018-01-23T06:35:16.750Z,15.30
2018-01-23T06:37:44.339Z,11.00
2018-01-23T06:40:12.755Z,12.90
2018-01-23T06:42:40.356Z,11.70
2018-01-23T06:45:08.921Z,8.37
2018-01-23T06:47:36.578Z,11.50
2018-01-23T06:50:04.166Z,11.67
2018-01-23T06:52:31.772Z,8.40
2018-01-23T06:54:59.424Z,16.13
2018-01-23T06:57:27.019Z,11.30
2018-01-23T06:59:54.614Z,14.13
2018-01-23T07:02:22.994Z,14.30
2018-01-23T07:04:50.600Z,12.63
2018-01-23T07:07:18.190Z,11.20
2018-01-23T07:09:45.811Z,14.40
2018-01-23T07:12:13.403Z,10.77
2018-01-23T07:14:40.998Z,9.23
2018-01-23T07:17:08.618Z,11.23
2018-01-23T07:19:36.219Z,13.50
2018-01-23T07:22:03.818Z,12.73
2018-01-23T07:24:31.428Z,12.73
2018-01-23T07:26:59.043Z,16.37
2018-01-23T07:29:26.645Z,12.00
2018-01-23T07:31:54.341Z,12.03
2018-01-23T07:34:21.926Z,10.93
2018-01-23T07:36:49.534Z,15.67
2018-01-23T07:39:17.163Z,21.50
2018-01-23T07:41:44.746Z,14.03
2018-01-23T07:44:12.356Z,12.20
2018-01-23T07:46:39.972Z,8.30
2018-01-23T07:49:07.552Z,10.37
2018-01-23T07:51:35.143Z,12.97
2018-01-23T07:54:03.523Z,9.07
2018-01-23T07:56:31.256Z,7.47
2018-01-23T07:58:58.836Z,8.93
2018-01-23T08:01:29.248Z,14.30
2018-01-23T08:03:56.846Z,8.17
2018-01-23T08:06:24.493Z,12.40
2018-01-23T08:08:52.108Z,6.47
2018-01-23T08:11:19.689Z,6.67
2018-01-23T08:14:12.269Z,7.30
2018-01-23T08:16:39.861Z,13.33
2018-01-23T08:19:07.477Z,11.33
2018-01-23T08:21:35.818Z,6.43
2018-01-23T08:24:03.432Z,9.83
2018-01-23T08:26:31.044Z,10.90
2018-01-23T08:28:58.648Z,8.30
2018-01-23T08:31:27.014Z,12.23
2018-01-23T08:33:55.417Z,6.53
2018-01-23T08:36:23.022Z,8.33
2018-01-23T08:38:50.610Z,8.77
2018-01-23T08:41:18.231Z,11.97
2018-01-23T08:43:45.833Z,7.23
2018-01-23T08:46:13.456Z,9.90
2018-01-23T08:48:41.829Z,8.50
2018-01-23T08:51:09.419Z,10.03
2018-01-23T08:53:37.011Z,8.37
2018-01-23T08:56:05.403Z,11.00
2018-01-23T08:58:33.027Z,9.40
2018-01-23T09:01:00.648Z,6.80
2018-01-23T09:03:28.323Z,5.70
2018-01-23T09:05:55.902Z,7.77
2018-01-23T09:08:23.489Z,9.10
2018-01-23T09:10:51.870Z,7.93
2018-01-23T09:13:20.229Z,6.47
2018-01-23T09:15:47.829Z,8.43
2018-01-23T09:18:15.450Z,8.30
2018-01-23T09:20:43.049Z,13.90
2018-01-23T09:23:10.644Z,10.40
2018-01-23T09:25:38.255Z,13.83
2018-01-23T09:28:06.602Z,7.27
2018-01-23T09:30:34.210Z,10.40
2018-01-23T09:33:01.830Z,10.90
2018-01-23T09:35:29.457Z,6.30
2018-01-23T09:37:57.045Z,8.17
2018-01-23T09:40:24.683Z,8.47
2018-01-23T09:42:52.274Z,10.53
2018-01-23T09:45:19.856Z,6.50
2018-01-23T09:47:48.264Z,11.43
2018-01-23T09:50:15.858Z,12.27
2018-01-23T09:52:43.449Z,10.57
2018-01-23T09:55:11.052Z,7.23
2018-01-23T09:57:38.670Z,10.40
2018-01-23T10:00:06.260Z,7.00
2018-01-23T10:02:33.890Z,9.50
2018-01-23T10:05:01.494Z,7.70
2018-01-23T10:07:29.086Z,8.33
2018-01-23T10:09:57.471Z,6.87
2018-01-23T10:12:25.064Z,7.73
2018-01-23T10:14:52.670Z,8.40
2018-01-23T10:17:20.270Z,8.43
2018-01-23T10:19:47.868Z,9.67
2018-01-23T10:22:16.233Z,10.90
2018-01-23T10:24:44.622Z,10.60
2018-01-23T10:27:12.974Z,7.37
2018-01-23T10:29:40.558Z,5.77
2018-01-23T10:32:08.942Z,10.37
2018-01-23T10:34:37.314Z,7.53
2018-01-23T10:37:04.944Z,6.90
2018-01-23T10:39:32.546Z,7.27
2018-01-23T10:42:00.146Z,10.33
2018-01-23T10:44:27.751Z,11.47
2018-01-23T10:46:56.143Z,5.97
2018-01-23T10:49:24.487Z,7.70
2018-01-23T10:51:52.090Z,7.67
2018-01-23T10:54:19.718Z,9.07
2018-01-23T10:56:47.317Z,10.27
2018-01-23T10:59:14.900Z,15.23
2018-01-23T11:01:42.509Z,7.23
2018-01-23T11:04:10.112Z,10.60
2018-01-23T11:06:37.723Z,9.70
2018-01-23T11:09:05.329Z,8.10
2018-01-23T11:11:32.913Z,11.80
2018-01-23T11:14:00.495Z,9.53
2018-01-23T11:16:28.109Z,7.83
2018-01-23T11:18:55.712Z,9.03
2018-01-23T11:21:23.296Z,4.30
2018-01-23T11:23:50.901Z,6.63
2018-01-23T11:26:18.477Z,9.23
2018-01-23T11:28:46.064Z,10.23
2018-01-23T11:31:13.676Z,13.10
2018-01-23T11:33:41.291Z,14.37
2018-01-23T11:36:08.872Z,9.43
2018-01-23T11:38:36.493Z,7.47
2018-01-23T11:41:04.095Z,5.27
2018-01-23T11:43:32.470Z,6.47
2018-01-23T11:46:00.075Z,9.37
2018-01-23T11:48:27.675Z,7.93
2018-01-23T11:50:55.267Z,5.13
2018-01-23T11:53:23.656Z,4.27
2018-01-23T11:55:51.252Z,11.00
2018-01-23T11:58:18.847Z,8.50
2018-01-23T12:00:46.466Z,5.63
2018-01-23T12:03:14.087Z,7.03
2018-01-23T12:05:41.702Z,7.57
2018-01-23T12:08:09.326Z,5.00
2018-01-23T12:10:42.281Z,8.80
2018-01-23T12:13:09.887Z,7.03
2018-01-23T12:15:37.484Z,8.23
2018-01-23T12:18:05.068Z,6.63
2018-01-23T12:20:32.690Z,6.67
2018-01-23T12:23:00.275Z,4.60
2018-01-23T12:25:33.712Z,4.57
2018-01-23T12:28:02.074Z,6.23
2018-01-23T12:30:30.422Z,7.43
2018-01-23T12:32:58.948Z,5.03
2018-01-23T12:35:26.535Z,7.20
2018-01-23T12:37:54.137Z,5.20
2018-01-23T12:40:21.741Z,6.87
2018-01-23T12:42:49.329Z,5.97
2018-01-23T12:45:16.912Z,8.20
2018-01-23T12:47:44.543Z,13.37
2018-01-23T12:50:12.117Z,6.83
2018-01-23T12:52:39.697Z,6.27
2018-01-23T12:55:08.082Z,9.87
2018-01-23T12:57:35.695Z,14.27
2018-01-23T13:00:03.326Z,5.47
2018-01-23T13:02:34.774Z,5.63
2018-01-23T13:05:03.132Z,7.43
2018-01-23T13:07:30.720Z,8.30
2018-01-23T13:09:59.120Z,4.97
2018-01-23T13:12:26.741Z,5.83
2018-01-23T13:15:02.084Z,4.13
2018-01-23T13:17:29.695Z,4.63
2018-01-23T13:19:57.277Z,4.53
2018-01-23T13:22:24.874Z,3.90
2018-01-23T13:24:52.457Z,7.73
2018-01-23T13:27:20.800Z,8.47
2018-01-23T13:29:48.414Z,9.27
2018-01-23T13:32:16.011Z,7.70
2018-01-23T13:34:43.606Z,7.23
2018-01-23T13:37:11.984Z,6.10
2018-01-23T13:39:40.351Z,6.93
2018-01-23T13:42:07.945Z,5.63
2018-01-23T13:44:36.349Z,7.53
2018-01-23T13:47:03.947Z,5.63
2018-01-23T13:49:31.546Z,5.23
2018-01-23T13:51:59.919Z,7.13
2018-01-23T13:54:27.553Z,12.60
2018-01-23T13:56:55.152Z,7.33
2018-01-23T13:59:22.765Z,6.50
2018-01-23T14:01:50.360Z,4.03
2018-01-23T14:04:18.010Z,6.37
2018-01-23T14:06:45.622Z,4.07
2018-01-23T14:09:13.215Z,5.07
2018-01-23T14:11:40.789Z,10.23
2018-01-23T14:14:08.393Z,7.60
2018-01-23T14:16:35.977Z,4.87
2018-01-23T14:19:09.061Z,3.23
2018-01-23T14:21:36.657Z,4.67
2018-01-23T14:24:04.255Z,4.57
2018-01-23T14:26:31.896Z,11.07
2018-01-23T14:28:59.483Z,9.60
2018-01-23T14:31:27.065Z,6.63
2018-01-23T14:33:54.684Z,5.30
2018-01-23T14:36:23.029Z,8.17
2018-01-23T14:38:50.684Z,4.50
2018-01-23T14:41:18.338Z,5.53
2018-01-23T14:43:45.938Z,4.33
2018-01-23T14:46:17.210Z,5.93
2018-01-23T14:48:44.838Z,5.50
2018-01-23T14:51:13.203Z,3.57
2018-01-23T14:53:42.827Z,3.00
2018-01-23T14:56:11.435Z,3.30
2018-01-23T14:58:39.824Z,8.40
2018-01-23T15:01:07.434Z,4.80
2018-01-23T15:03:35.055Z,4.00
2018-01-23T15:06:02.659Z,2.50
2018-01-23T15:08:31.004Z,4.07
2018-01-23T15:10:58.625Z,4.03
2018-01-23T15:13:26.230Z,4.10
2018-01-23T15:15:53.834Z,2.27
2018-01-23T15:18:21.436Z,4.07
2018-01-23T15:20:49.030Z,5.03
2018-01-23T15:23:16.630Z,5.40
2018-01-23T15:25:45.023Z,4.93
2018-01-23T15:28:22.320Z,3.00
2018-01-23T15:31:14.361Z,3.90
2018-01-23T15:33:41.958Z,3.33
2018-01-23T15:36:11.601Z,6.17
2018-01-23T15:38:39.954Z,3.77
2018-01-23T15:41:07.550Z,5.70
2018-01-23T15:43:35.941Z,4.57
2018-01-23T15:46:14.518Z,3.77
2018-01-23T15:48:42.142Z,4.27
2018-01-23T15:51:09.713Z,9.37
2018-01-23T15:53:37.302Z,7.30
2018-01-23T15:56:04.903Z,5.50
2018-01-23T15:58:32.498Z,5.30
2018-01-23T16:01:14.890Z,3.00
2018-01-23T16:03:42.461Z,7.23
2018-01-23T16:06:24.446Z,8.80
2018-01-23T16:08:52.025Z,4.50
2018-01-23T16:11:19.609Z,6.53
2018-01-23T16:13:47.225Z,6.37
2018-01-23T16:16:14.834Z,4.10
2018-01-23T16:18:42.426Z,2.80
2018-01-23T16:21:10.828Z,9.90
2018-01-23T16:26:52.331Z,7.10
2018-01-23T16:29:19.937Z,4.33
2018-01-23T16:31:47.532Z,5.47
2018-01-23T16:34:15.915Z,6.30
2018-01-23T16:36:43.545Z,5.07
2018-01-23T16:39:11.142Z,6.27
2018-01-23T16:41:39.531Z,7.50
2018-01-23T16:44:09.116Z,9.27
2018-01-23T16:46:36.703Z,9.13
2018-01-23T16:49:05.254Z,9.30
2018-01-23T16:51:32.841Z,7.90
2018-01-23T16:54:01.276Z,17.03
2018-01-23T16:56:28.897Z,10.10
2018-01-23T16:58:56.487Z,7.53
2018-01-23T17:01:24.078Z,12.63
2018-01-23T17:03:51.702Z,10.03
2018-01-23T17:06:19.288Z,10.50
2018-01-23T17:08:46.883Z,14.70
2018-01-23T17:11:15.276Z,8.20
2018-01-23T17:13:42.876Z,12.47
2018-01-23T17:16:10.458Z,6.63
2018-01-23T17:18:41.309Z,7.83
2018-01-23T17:21:08.918Z,9.17
2018-01-23T17:23:41.788Z,14.57
2018-01-23T17:26:09.367Z,8.13
2018-01-23T17:28:36.964Z,9.07
2018-01-23T17:31:04.574Z,10.60
2018-01-23T17:33:38.178Z,9.60
2018-01-23T17:36:05.796Z,11.30
2018-01-23T17:38:33.368Z,5.93
2018-01-23T17:41:01.732Z,8.33
2018-01-23T17:43:29.333Z,6.90
2018-01-23T17:45:57.803Z,5.50
2018-01-23T17:48:25.421Z,8.70
2018-01-23T17:50:53.020Z,9.87
2018-01-23T17:53:21.368Z,9.50
2018-01-23T17:55:54.744Z,11.57
2018-01-23T17:58:22.336Z,6.73
2018-01-23T18:00:49.933Z,5.60
2018-01-23T18:03:17.541Z,12.63
2018-01-23T18:05:45.158Z,8.47
2018-01-23T18:08:12.733Z,12.73
2018-01-23T18:10:40.357Z,10.93
2018-01-23T18:13:08.725Z,11.27
2018-01-23T18:15:37.098Z,10.27
2018-01-23T18:18:04.710Z,10.83
2018-01-23T18:20:32.309Z,10.73
2018-01-23T18:23:17.020Z,10.03
2018-01-23T18:25:44.605Z,7.47
2018-01-23T18:28:12.203Z,13.77
2018-01-23T18:30:39.849Z,15.10
2018-01-23T18:33:07.456Z,8.83
2018-01-23T18:35:35.060Z,13.27
2018-01-23T18:38:03.483Z,11.30
2018-01-23T18:40:31.852Z,8.93
2018-01-23T18:42:59.494Z,13.03
2018-01-23T18:45:27.238Z,10.00
2018-01-23T18:47:54.838Z,11.13
2018-01-23T18:50:22.445Z,9.30
2018-01-23T18:52:50.135Z,7.70
2018-01-23T18:55:17.724Z,9.70
2018-01-23T18:57:58.366Z,15.23
2018-01-23T19:00:25.964Z,17.17
2018-01-23T19:02:54.339Z,11.60
2018-01-23T19:05:22.733Z,9.47
2018-01-23T19:07:50.343Z,12.00
2018-01-23T19:10:17.931Z,10.03
2018-01-23T19:12:45.572Z,12.07
2018-01-23T19:15:14.223Z,12.53
2018-01-23T19:17:41.824Z,11.67
2018-01-23T19:20:09.466Z,13.23
2018-01-23T19:22:37.067Z,11.33
2018-01-23T19:25:04.665Z,10.77
2018-01-23T19:27:33.544Z,13.60
2018-01-23T19:30:01.317Z,9.27
2018-01-23T19:32:28.930Z,11.77
2018-01-23T19:34:56.572Z,10.60
2018-01-23T19:37:24.406Z,11.03
2018-01-23T19:40:06.413Z,13.90
2018-01-23T19:42:34.013Z,10.90
2018-01-23T19:45:12.237Z,14.83
2018-01-23T19:47:39.834Z,10.83
2018-01-23T19:50:07.429Z,17.63
2018-01-23T19:52:35.072Z,18.10
2018-01-23T19:55:02.699Z,14.57
2018-01-23T19:57:31.094Z,9.67
2018-01-23T19:59:59.478Z,9.07
2018-01-23T20:02:27.073Z,9.17
2018-01-23T20:04:54.675Z,7.90
2018-01-23T20:07:22.296Z,13.07
2018-01-23T20:09:49.903Z,12.57
2018-01-23T20:15:10.614Z,9.70
2018-01-23T20:17:38.280Z,12.23
2018-01-23T20:20:05.880Z,5.23
2018-01-23T20:22:33.475Z,10.30
2018-01-23T20:25:09.559Z,7.87
2018-01-23T20:27:37.146Z,7.87
2018-01-23T20:30:05.493Z,7.33
2018-01-23T20:32:33.103Z,7.60
2018-01-23T20:35:00.727Z,13.27
2018-01-23T20:37:28.316Z,13.90
2018-01-23T20:39:56.002Z,8.00
2018-01-23T20:42:23.595Z,7.07
2018-01-23T20:44:52.170Z,7.60
2018-01-23T20:47:19.784Z,5.63
2018-01-23T20:50:04.240Z,12.50
2018-01-23T20:52:32.620Z,6.23
2018-01-23T20:55:00.228Z,8.23
2018-01-23T20:57:49.783Z,7.27
2018-01-23T21:00:17.374Z,6.97
2018-01-23T21:02:44.972Z,8.57
2018-01-23T21:05:13.372Z,5.63
2018-01-23T21:07:40.999Z,7.50
2018-01-23T21:10:13.344Z,11.93
2018-01-23T21:12:40.958Z,6.93
2018-01-23T21:15:08.554Z,11.60
2018-01-23T21:17:36.187Z,6.93
2018-01-23T21:20:05.865Z,13.40
2018-01-23T21:22:33.427Z,13.80
2018-01-23T21:25:18.120Z,6.17
2018-01-23T21:27:50.433Z,7.57
2018-01-23T21:30:18.071Z,6.73
2018-01-23T21:32:45.674Z,9.83
2018-01-23T21:35:13.265Z,11.47
2018-01-23T21:37:40.910Z,6.53
2018-01-23T21:40:09.317Z,6.80
2018-01-23T21:42:36.938Z,7.47
2018-01-23T21:45:06.586Z,7.33
2018-01-23T21:47:34.178Z,12.67
2018-01-23T21:50:01.756Z,6.23
2018-01-23T21:52:29.383Z,9.00
2018-01-23T21:54:57.057Z,4.80
2018-01-23T21:57:27.383Z,7.80
2018-01-23T22:00:05.695Z,13.73
2018-01-23T22:02:42.675Z,8.27
2018-01-23T22:05:15.635Z,6.63
2018-01-23T22:07:59.982Z,6.00
2018-01-23T22:10:28.348Z,5.37
2018-01-23T22:13:02.343Z,11.13
2018-01-23T22:15:29.955Z,3.87
2018-01-23T22:17:57.552Z,5.70
2018-01-23T22:20:25.129Z,8.40
2018-01-23T22:22:52.738Z,6.07
2018-01-23T22:25:21.592Z,4.63
2018-01-23T22:27:49.217Z,10.73
2018-01-23T22:30:33.753Z,4.97
2018-01-23T22:33:01.347Z,6.17
2018-01-23T22:35:28.934Z,5.20
2018-01-23T22:37:57.331Z,6.80
2018-01-23T22:40:25.687Z,5.37
2018-01-23T22:43:15.505Z,12.50
2018-01-23T22:45:43.103Z,3.73
2018-01-23T22:48:10.707Z,6.23
2018-01-23T22:50:39.106Z,7.00
2018-01-23T22:53:06.689Z,8.23
2018-01-23T22:55:34.269Z,8.00
2018-01-23T22:58:01.888Z,5.73
2018-01-23T23:00:29.479Z,10.67
2018-01-23T23:02:57.072Z,7.33
2018-01-23T23:05:24.697Z,6.10
2018-01-23T23:07:52.274Z,5.47
2018-01-23T23:10:19.861Z,3.47
2018-01-23T23:12:48.263Z,5.40
2018-01-23T23:15:16.616Z,11.63
2018-01-23T23:17:44.197Z,6.77
2018-01-23T23:20:12.590Z,4.70
2018-01-23T23:22:40.173Z,4.63
2018-01-23T23:25:07.757Z,4.63
2018-01-23T23:27:35.383Z,4.50
2018-01-23T23:30:02.973Z,4.43
2018-01-23T23:32:30.566Z,6.60
2018-01-23T23:34:58.950Z,5.20
2018-01-23T23:37:27.304Z,6.00
2018-01-23T23:39:54.918Z,4.93
2018-01-23T23:42:22.530Z,4.67
2018-01-23T23:44:50.112Z,4.37
2018-01-23T23:47:31.022Z,3.60
2018-01-23T23:49:58.621Z,8.60
2018-01-23T23:52:26.218Z,8.20
2018-01-23T23:54:54.606Z,5.17
2018-01-23T23:57:22.212Z,4.73
2018-01-23T23:59:49.791Z,7.17
